Time;durP1;ratioP1;P1;durP2;ratioP2;P2;SDS_P1;SDS_P2;PMS_P1;PMS_P2;Temp;Humidity;BMP_temperature;BMP_pressure;BME280_temperature;BME280_humidity;BME280_pressure;Samples;Min_cycle;Max_cycle;Signal;HPM_P1;HPM_P2
2021/05/17 00:01:14;;;;;;;20.20;16.60;;;;;;;13.11;83.74;93784.04;827710;71;32460;-78
2021/05/17 00:16:14;;;;;;;13.80;12.30;;;;;;;13.05;83.69;93777.42;827580;71;31714;-77
2021/05/17 00:31:09;;;;;;;17.37;14.35;;;;;;;12.82;84.56;93785.06;828414;71;30060;-78
2021/05/17 00:46:15;;;;;;;15.30;13.40;;;;;;;12.77;86.28;93771.31;827480;71;32254;-78
2021/05/17 01:01:09;;;;;;;15.10;12.40;;;;;;;12.72;85.59;93783.35;828375;71;28859;-79
2021/05/17 01:16:09;;;;;;;16.12;13.13;;;;;;;12.68;85.26;93780.58;828472;71;28778;-78
2021/05/17 01:31:16;;;;;;;15.75;12.90;;;;;;;12.69;85.12;93797.93;827786;71;31760;-76
2021/05/17 01:46:19;;;;;;;14.07;12.03;;;;;;;12.72;85.03;93784.67;827957;71;31786;-78
2021/05/17 02:01:17;;;;;;;18.05;14.98;;;;;;;12.51;85.74;93778.81;828849;71;28645;-78
2021/05/17 02:16:16;;;;;;;25.15;17.45;;;;;;;12.56;88.24;93757.57;827654;71;31800;-78
2021/05/17 02:31:11;;;;;;;28.90;19.02;;;;;;;12.73;88.37;93772.52;830042;71;29385;-78
2021/05/17 02:46:08;;;;;;;29.27;19.65;;;;;;;12.86;88.04;93767.33;834113;71;28673;-77
2021/05/17 03:01:49;;;;;;;31.25;19.95;;;;;;;12.86;87.96;93783.89;828385;71;28755;-78
2021/05/17 03:16:09;;;;;;;30.48;19.27;;;;;;;12.97;87.77;93798.21;828463;71;28743;-79
2021/05/17 03:31:14;;;;;;;33.55;22.32;;;;;;;13.01;87.31;93792.53;828618;71;31577;-78
2021/05/17 03:46:10;;;;;;;27.30;19.00;;;;;;;12.59;88.62;93820.11;828103;71;29774;-77
2021/05/17 04:01:16;;;;;;;29.02;18.95;;;;;;;12.76;88.96;93823.75;827686;71;31731;-76
2021/05/17 04:16:15;;;;;;;30.43;21.75;;;;;;;13.07;87.74;93814.74;827466;71;31861;-78
2021/05/17 04:31:14;;;;;;;27.85;20.57;;;;;;;13.20;87.87;93813.73;827567;71;31750;-75
2021/05/17 04:46:15;;;;;;;26.42;18.30;;;;;;;13.61;87.03;93802.43;827451;71;32783;-78
2021/05/17 05:01:14;;;;;;;26.50;19.92;;;;;;;14.61;83.89;93785.19;827413;71;32188;-76
2021/05/17 05:16:09;;;;;;;25.35;20.35;;;;;;;16.44;79.35;93801.36;828349;71;30020;-77
2021/05/17 05:46:14;;;;;;;30.12;23.73;;;;;;;20.49;65.20;93804.73;835693;71;32785;-77
2021/05/17 06:01:16;;;;;;;30.03;24.30;;;;;;;21.86;58.38;93803.73;834150;71;32719;-76
2021/05/17 06:16:10;;;;;;;28.60;23.70;;;;;;;21.08;58.12;93768.80;829021;71;29888;-77
2021/05/17 06:31:11;;;;;;;29.65;25.45;;;;;;;20.91;59.45;93774.81;829180;71;29725;-77
2021/05/17 06:46:14;;;;;;;27.50;23.70;;;;;;;21.63;56.48;93759.19;828042;71;32709;-77
2021/05/17 07:01:08;;;;;;;26.40;23.70;;;;;;;21.95;56.54;93745.35;828612;71;29827;-76
2021/05/17 07:16:08;;;;;;;21.73;19.47;;;;;;;22.92;54.45;93732.05;828513;71;31646;-77
2021/05/17 08:01:25;;;;;;;28.35;24.20;;;;;;;20.55;58.41;93715.29;819533;71;32798;-78
2021/05/17 08:16:09;;;;;;;26.40;22.77;;;;;;;19.64;62.13;93724.72;834141;71;29695;-78
2021/05/17 08:31:14;;;;;;;20.45;18.17;;;;;;;18.93;64.09;93734.69;823073;71;30494;-76
2021/05/17 08:46:15;;;;;;;18.48;15.75;;;;;;;17.89;68.33;93739.12;827533;71;32716;-77
2021/05/17 09:01:47;;;;;;;21.30;18.17;;;;;;;18.75;71.15;93721.88;829208;71;29794;-76
2021/05/17 09:16:31;;;;;;;23.00;20.50;;;;;;;19.48;71.29;93720.36;821580;71;32915;-74
2021/05/17 09:31:23;;;;;;;4.15;3.85;;;;;;;19.46;68.21;93696.01;834264;71;30278;-78
2021/05/17 09:46:11;;;;;;;12.68;10.82;;;;;;;19.83;67.41;93681.20;828326;71;29766;-77
2021/05/17 10:01:16;;;;;;;12.58;11.28;;;;;;;18.77;68.91;93663.05;828312;71;29756;-76
2021/05/17 10:16:21;;;;;;;20.92;15.53;;;;;;;18.34;72.88;93658.48;827402;71;33132;-75
2021/05/17 10:31:20;;;;;;;18.80;15.28;;;;;;;17.68;74.85;93680.31;827447;71;33216;-75
2021/05/17 10:47:37;;;;;;;18.10;16.10;;;;;;;17.37;75.03;93674.84;805052;73;26269;-76
2021/05/17 10:48:51;;;;;;;18.35;16.45;;;;;;;17.36;75.61;93668.02;808694;73;26316;-81
2021/05/17 10:50:00;;;;;;;17.48;15.53;;;;;;;17.43;75.52;93668.14;808482;72;26327;-79
2021/05/17 10:51:14;;;;;;;19.42;16.85;;;;;;;17.53;75.43;93663.39;803560;73;26272;-78
2021/05/17 10:52:23;;;;;;;18.42;16.40;;;;;;;17.62;75.19;93663.95;808739;73;26687;-79
2021/05/17 10:53:53;;;;;;;18.98;16.15;;;;;;;17.70;75.19;93670.91;808871;73;26301;-80
2021/05/17 10:55:04;;;;;;;17.37;15.55;;;;;;;17.82;74.99;93665.97;808476;73;26338;-79
2021/05/17 10:56:19;;;;;;;17.70;15.25;;;;;;;17.91;74.81;93660.47;808681;73;26242;-78
2021/05/17 10:57:31;;;;;;;17.67;15.80;;;;;;;18.01;74.50;93648.69;808867;73;26828;-79
2021/05/17 11:00:24;;;;;;;16.10;14.13;;;;;;;18.11;73.29;93656.62;808734;72;26273;-79
2021/05/17 11:01:29;;;;;;;16.40;14.70;;;;;;;18.16;73.12;93663.52;808810;73;26272;-80
2021/05/17 11:02:37;;;;;;;16.40;14.80;;;;;;;18.19;72.94;93660.92;808632;73;26301;-77
2021/05/17 11:03:41;;;;;;;18.42;15.32;;;;;;;18.25;72.57;93654.75;808737;72;26354;-76
2021/05/17 11:04:53;;;;;;;17.67;15.25;;;;;;;18.28;72.16;93657.25;808676;73;26758;-78
2021/05/17 11:05:57;;;;;;;16.62;14.70;;;;;;;18.33;72.17;93662.24;808645;73;26272;-79
2021/05/17 11:07:22;;;;;;;15.72;14.13;;;;;;;18.36;72.12;93666.28;808587;73;26338;-80
2021/05/17 11:08:26;;;;;;;16.05;14.35;;;;;;;18.39;72.06;93669.56;808711;73;26269;-78
2021/05/17 11:09:32;;;;;;;14.90;13.38;;;;;;;18.47;71.83;93673.10;808885;72;26295;-78
2021/05/17 11:10:45;;;;;;;13.80;12.30;;;;;;;18.53;71.51;93669.02;807924;73;26318;-80
2021/05/17 11:11:49;;;;;;;15.80;13.50;;;;;;;18.60;71.19;93674.41;808812;73;26258;-79
2021/05/17 11:12:56;;;;;;;14.87;12.70;;;;;;;18.67;70.85;93671.65;808770;73;26259;-78
2021/05/17 11:14:20;;;;;;;16.80;13.72;;;;;;;18.72;70.80;93668.13;806764;73;26273;-82
2021/05/17 11:15:27;;;;;;;14.13;12.60;;;;;;;18.76;70.43;93673.50;808630;73;26337;-78
2021/05/17 11:16:33;;;;;;;14.90;13.40;;;;;;;18.77;69.68;93675.02;808764;72;26307;-78
2021/05/17 11:17:56;;;;;;;14.98;13.13;;;;;;;18.75;69.52;93679.92;808748;73;26284;-78
2021/05/17 11:19:01;;;;;;;13.25;11.95;;;;;;;18.72;69.67;93674.77;808745;73;26269;-80
2021/05/17 11:20:08;;;;;;;14.45;12.93;;;;;;;18.72;69.35;93677.42;806309;73;26372;-77
2021/05/17 11:21:14;;;;;;;13.58;12.18;;;;;;;18.69;69.51;93676.80;777604;73;26823;-78
2021/05/17 11:22:18;;;;;;;12.68;11.38;;;;;;;18.68;69.76;93671.30;808652;73;26273;-79
2021/05/17 11:23:25;;;;;;;13.80;12.40;;;;;;;18.69;69.75;93670.16;808543;73;26209;-79
2021/05/17 11:24:29;;;;;;;13.55;12.13;;;;;;;18.71;69.66;93665.82;808636;72;26358;-77
2021/05/17 11:25:48;;;;;;;13.30;12.00;;;;;;;18.73;69.61;93662.23;808718;73;26759;-79
2021/05/17 11:27:00;;;;;;;14.28;12.53;;;;;;;18.74;69.53;93667.20;805928;73;26316;-78
2021/05/17 11:28:04;;;;;;;13.13;11.83;;;;;;;18.76;69.54;93670.84;808813;73;26364;-79
2021/05/17 11:29:09;;;;;;;13.60;12.15;;;;;;;18.78;69.54;93673.90;808618;73;26261;-81
2021/05/17 11:30:40;;;;;;;13.30;11.93;;;;;;;18.80;69.34;93676.42;808634;73;26288;-78
2021/05/17 11:31:50;;;;;;;13.40;12.10;;;;;;;18.84;69.03;93678.38;797118;74;26307;-76
2021/05/17 11:33:13;;;;;;;14.38;12.88;;;;;;;18.81;69.08;93677.19;805745;73;26779;-79
2021/05/17 11:34:22;;;;;;;14.07;12.60;;;;;;;18.78;69.26;93669.91;807928;73;26779;-78
2021/05/17 11:35:25;;;;;;;14.15;12.75;;;;;;;18.74;69.15;93663.22;808673;72;26293;-77
2021/05/17 11:36:42;;;;;;;14.75;13.15;;;;;;;18.67;69.14;93660.45;808668;73;26292;-79
2021/05/17 11:38:08;;;;;;;14.58;11.88;;;;;;;18.63;69.37;93666.28;808806;73;26264;-78
2021/05/17 11:39:36;;;;;;;14.38;12.50;;;;;;;18.61;69.43;93667.20;809493;73;26400;-78
2021/05/17 11:40:43;;;;;;;13.00;11.60;;;;;;;18.57;69.55;93673.03;810155;72;26273;-79
2021/05/17 11:42:02;;;;;;;13.80;11.60;;;;;;;18.54;69.65;93671.86;809922;73;26322;-78
2021/05/17 11:43:06;;;;;;;11.95;10.72;;;;;;;18.56;69.29;93666.95;809995;73;26343;-78
2021/05/17 11:44:13;;;;;;;13.35;11.93;;;;;;;18.58;69.48;93671.91;810894;73;26194;-81
2021/05/17 11:45:23;;;;;;;12.95;11.28;;;;;;;18.59;69.58;93670.78;810710;72;26247;-80
2021/05/17 11:46:22;;;;;;;12.03;10.90;;;;;;;18.58;69.73;93673.25;810659;73;26351;-79
2021/05/17 11:47:30;;;;;;;12.30;11.10;;;;;;;18.60;69.77;93677.06;813851;71;26248;-80
2021/05/17 11:48:34;;;;;;;12.80;11.60;;;;;;;18.61;69.88;93675.17;813836;71;26194;-78
2021/05/17 11:49:41;;;;;;;13.28;11.97;;;;;;;18.56;69.81;93672.27;813822;71;26194;-79
2021/05/17 11:50:45;;;;;;;12.53;11.33;;;;;;;18.55;70.10;93668.63;813724;71;26225;-81
2021/05/17 11:51:54;;;;;;;12.63;11.33;;;;;;;18.55;70.18;93663.32;813750;71;26298;-81
2021/05/17 11:52:59;;;;;;;12.73;11.48;;;;;;;18.55;70.28;93662.78;812813;71;26341;-80
2021/05/17 11:54:04;;;;;;;12.63;11.33;;;;;;;18.55;70.28;93671.29;812067;73;26229;-80
2021/05/17 11:55:10;;;;;;;11.50;10.30;;;;;;;18.53;70.39;93668.23;812054;73;26272;-79
2021/05/17 11:56:14;;;;;;;11.75;10.53;;;;;;;18.48;70.61;93673.29;811904;73;26358;-77
2021/05/17 11:57:20;;;;;;;11.95;10.58;;;;;;;18.49;70.89;93671.39;812761;73;26279;-78
2021/05/17 11:58:26;;;;;;;11.40;10.20;;;;;;;18.51;71.12;93665.95;811628;73;26253;-79
2021/05/17 11:59:31;;;;;;;13.00;9.33;;;;;;;18.55;70.99;93664.65;811452;73;26310;-81
2021/05/17 12:00:34;;;;;;;10.43;9.35;;;;;;;18.59;71.03;93664.13;811743;73;26256;-79
2021/05/17 12:01:41;;;;;;;13.72;10.00;;;;;;;18.63;71.38;93670.27;811720;72;26342;-80
2021/05/17 12:02:46;;;;;;;9.45;8.55;;;;;;;18.68;71.35;93662.00;811727;72;26651;-82
2021/05/17 12:03:50;;;;;;;8.93;8.03;;;;;;;18.75;70.70;93663.41;811708;73;26293;-78
2021/05/17 12:04:53;;;;;;;10.08;8.73;;;;;;;18.78;70.43;93664.03;811313;73;26378;-77
2021/05/17 12:06:00;;;;;;;10.28;9.28;;;;;;;18.81;70.12;93664.65;811206;73;26819;-79
2021/05/17 12:07:12;;;;;;;9.25;8.30;;;;;;;18.86;70.17;93661.50;811418;72;26302;-79
2021/05/17 12:08:18;;;;;;;9.28;8.38;;;;;;;18.88;69.61;93662.67;811349;73;26346;-79
2021/05/17 12:09:35;;;;;;;8.80;8.00;;;;;;;18.93;69.16;93665.56;811300;73;26303;-78
2021/05/17 12:10:40;;;;;;;8.78;7.58;;;;;;;18.95;69.17;93657.42;811359;73;26323;-76
2021/05/17 12:11:51;;;;;;;8.53;7.50;;;;;;;18.95;68.67;93660.08;811428;73;26337;-78
2021/05/17 12:12:55;;;;;;;8.15;7.45;;;;;;;18.96;68.41;93662.20;811432;73;26354;-79
2021/05/17 12:14:07;;;;;;;8.40;7.22;;;;;;;18.98;68.36;93662.61;811337;72;26484;-78
2021/05/17 12:15:13;;;;;;;8.20;7.42;;;;;;;19.01;68.13;93668.52;811388;73;26280;-80
2021/05/17 12:16:29;;;;;;;8.30;7.58;;;;;;;19.04;68.20;93673.13;811161;72;26515;-79
2021/05/17 12:17:36;;;;;;;10.08;8.25;;;;;;;19.06;68.24;93670.88;811354;73;26335;-77
2021/05/17 12:18:40;;;;;;;9.13;8.23;;;;;;;19.07;68.37;93668.97;811415;73;26226;-78
2021/05/17 12:19:50;;;;;;;8.10;7.30;;;;;;;19.10;68.57;93665.58;811325;73;26816;-78
2021/05/17 12:20:54;;;;;;;8.68;7.70;;;;;;;19.09;68.45;93659.50;809959;72;26295;-81
2021/05/17 12:22:01;;;;;;;7.75;7.00;;;;;;;19.17;68.38;93661.68;811451;73;26225;-78
2021/05/17 12:23:05;;;;;;;8.45;7.50;;;;;;;19.25;68.68;93661.96;811331;72;26284;-79
2021/05/17 12:24:10;;;;;;;11.03;9.18;;;;;;;19.32;68.82;93656.73;811390;73;26820;-79
2021/05/17 12:25:23;;;;;;;9.20;8.33;;;;;;;19.38;69.06;93655.82;809928;72;26734;-80
2021/05/17 12:26:26;;;;;;;10.25;8.05;;;;;;;19.44;68.33;93649.61;811346;73;26284;-80
2021/05/17 12:27:32;;;;;;;9.80;8.50;;;;;;;19.45;67.89;93645.27;811281;73;26326;-79
2021/05/17 12:28:43;;;;;;;8.88;7.90;;;;;;;19.44;67.96;93645.63;811383;73;26334;-79
2021/05/17 12:30:07;;;;;;;8.20;7.40;;;;;;;19.47;67.82;93647.57;811447;73;26229;-80
2021/05/17 12:31:11;;;;;;;8.38;7.65;;;;;;;19.46;67.74;93641.47;811393;73;26338;-76
2021/05/17 12:32:15;;;;;;;9.68;7.92;;;;;;;19.49;67.65;93645.31;811446;73;26326;-78
2021/05/17 12:33:22;;;;;;;8.35;7.47;;;;;;;19.50;67.74;93653.48;811113;73;26312;-79
2021/05/17 12:34:25;;;;;;;11.63;7.92;;;;;;;19.51;68.00;93639.06;811382;72;26260;-76
2021/05/17 12:35:35;;;;;;;8.40;7.60;;;;;;;19.51;67.89;93641.72;811396;73;26221;-79
2021/05/17 12:36:41;;;;;;;8.20;7.40;;;;;;;19.49;67.89;93642.65;811323;73;26396;-78
2021/05/17 12:37:50;;;;;;;7.42;6.72;;;;;;;19.51;68.03;93643.81;811364;73;26311;-79
2021/05/17 12:38:56;;;;;;;8.50;7.62;;;;;;;19.56;68.09;93650.11;811328;73;26742;-79
2021/05/17 12:40:25;;;;;;;7.97;7.20;;;;;;;19.55;68.13;93643.28;811291;72;26781;-80
2021/05/17 12:41:38;;;;;;;8.28;7.58;;;;;;;19.52;68.22;93637.91;811371;73;26832;-79
2021/05/17 12:42:43;;;;;;;8.25;7.40;;;;;;;19.44;68.31;93639.73;811354;73;26319;-80
2021/05/17 12:43:46;;;;;;;8.43;7.62;;;;;;;19.34;68.49;93628.42;808302;72;26742;-80
2021/05/17 12:44:50;;;;;;;7.83;7.10;;;;;;;19.21;68.48;93629.23;801514;72;26348;-81
2021/05/17 12:46:00;;;;;;;8.33;7.42;;;;;;;19.11;68.69;93624.57;796918;74;26333;-78
2021/05/17 12:47:08;;;;;;;9.13;7.53;;;;;;;18.99;69.00;93622.91;807274;72;26727;-80
2021/05/17 12:48:20;;;;;;;7.80;7.10;;;;;;;18.89;69.32;93626.21;816534;72;26401;-77
2021/05/17 12:49:30;;;;;;;7.35;6.65;;;;;;;18.81;69.40;93618.70;813564;72;26350;-78
2021/05/17 12:50:34;;;;;;;7.80;7.00;;;;;;;18.75;69.70;93621.45;819088;72;26301;-78
2021/05/17 12:51:41;;;;;;;10.55;6.47;;;;;;;18.73;70.22;93627.12;821480;72;26288;-79
2021/05/17 12:52:45;;;;;;;6.65;5.90;;;;;;;18.76;70.62;93625.08;821477;72;26257;-77
2021/05/17 12:53:54;;;;;;;7.42;6.62;;;;;;;18.79;70.76;93632.92;821524;72;26644;-78
2021/05/17 12:55:08;;;;;;;7.85;6.95;;;;;;;18.81;70.66;93630.09;821592;72;26272;-80
2021/05/17 12:56:23;;;;;;;7.60;6.80;;;;;;;18.86;70.79;93634.35;790591;74;26370;-78
2021/05/17 12:57:27;;;;;;;7.03;6.40;;;;;;;18.85;70.44;93640.78;821432;72;26379;-80
2021/05/17 12:58:36;;;;;;;7.92;6.42;;;;;;;18.81;70.21;93635.98;821670;72;26210;-79
2021/05/17 12:59:47;;;;;;;6.65;6.15;;;;;;;18.78;70.47;93638.78;821628;72;26350;-80
2021/05/17 13:00:53;;;;;;;6.80;6.20;;;;;;;18.80;70.93;93646.42;821774;72;26318;-79
2021/05/17 13:02:00;;;;;;;7.40;6.40;;;;;;;18.81;70.76;93654.59;821604;72;26289;-80
2021/05/17 13:03:14;;;;;;;8.03;6.80;;;;;;;18.80;70.71;93655.16;819328;72;26304;-82
2021/05/17 13:04:34;;;;;;;8.35;6.55;;;;;;;18.83;70.78;93669.61;804032;73;26693;-78
2021/05/17 13:05:50;;;;;;;7.58;6.75;;;;;;;18.82;70.85;93666.77;807632;72;26264;-79
2021/05/17 13:07:10;;;;;;;6.42;5.87;;;;;;;18.80;71.12;93670.34;821372;72;26784;-79
2021/05/17 13:08:10;;;;;;;6.90;6.20;;;;;;;18.77;71.34;93666.47;817261;72;26338;-77
2021/05/17 13:09:22;;;;;;;7.42;6.72;;;;;;;18.79;71.65;93672.79;818882;72;26351;-80
2021/05/17 13:10:40;;;;;;;;;;;;;;;;;;;;;
2021/05/17 13:11:44;;;;;;;7.53;6.83;;;;;;;18.77;71.96;93665.71;821633;72;26339;-79
2021/05/17 13:12:54;;;;;;;7.67;6.97;;;;;;;18.79;72.71;93666.14;821506;72;26304;-79
2021/05/17 13:14:06;;;;;;;9.28;7.30;;;;;;;18.81;73.13;93666.55;820589;72;26260;-79
2021/05/17 13:15:13;;;;;;;8.00;7.20;;;;;;;18.83;72.89;93666.95;821285;72;27050;-78
2021/05/17 13:16:31;;;;;;;7.75;6.42;;;;;;;18.84;72.76;93666.41;821004;72;26291;-78
2021/05/17 13:17:38;;;;;;;7.58;6.33;;;;;;;18.86;72.40;93664.16;821445;72;26264;-79
2021/05/17 13:19:11;;;;;;;8.40;6.62;;;;;;;18.87;72.54;93668.34;818523;72;27286;-79
2021/05/17 13:20:17;;;;;;;6.67;5.97;;;;;;;18.56;73.56;93621.78;817717;72;26304;-77
2021/05/17 13:21:27;;;;;;;6.85;6.20;;;;;;;18.89;73.39;93664.19;819188;72;26297;-77
2021/05/17 13:23:00;;;;;;;7.92;6.53;;;;;;;18.91;73.64;93656.61;819915;72;26354;-81
2021/05/17 13:31:54;;;;;;;6.70;6.10;;;;;;;19.07;72.85;93642.38;821952;72;26314;-78
2021/05/17 13:32:59;;;;;;;7.12;6.12;;;;;;;19.03;72.55;93643.66;822624;72;26249;-79
2021/05/17 13:34:06;;;;;;;6.10;5.60;;;;;;;19.02;72.87;93648.79;822648;72;26246;-79
2021/05/17 13:35:12;;;;;;;6.42;5.72;;;;;;;19.00;72.88;93647.81;822384;72;26350;-77
2021/05/17 13:36:31;;;;;;;6.03;5.47;;;;;;;18.98;72.96;93648.74;822298;72;26261;-77
2021/05/17 13:37:34;;;;;;;5.80;5.30;;;;;;;18.99;72.84;93649.50;795588;74;26455;-77
2021/05/17 13:38:41;;;;;;;6.05;5.40;;;;;;;18.99;73.45;93646.84;821577;72;26265;-79
2021/05/17 13:39:49;;;;;;;6.50;5.90;;;;;;;19.00;73.30;93650.47;822182;72;26257;-79
2021/05/17 13:40:53;;;;;;;6.85;6.15;;;;;;;19.03;73.71;93648.22;821600;72;26370;-79
2021/05/17 13:41:57;;;;;;;5.62;5.03;;;;;;;19.04;73.66;93656.38;820648;72;26265;-77
2021/05/17 13:43:01;;;;;;;8.53;6.00;;;;;;;19.05;73.94;93650.71;818548;72;26558;-79
2021/05/17 13:44:05;;;;;;;5.83;5.33;;;;;;;19.03;72.97;93659.61;818507;72;26740;-78
2021/05/17 13:45:16;;;;;;;6.90;6.20;;;;;;;18.93;72.31;93654.36;818385;72;26285;-77
2021/05/17 13:46:19;;;;;;;6.05;5.53;;;;;;;18.86;72.55;93649.55;821736;72;26277;-75
2021/05/17 13:47:27;;;;;;;6.65;5.90;;;;;;;18.80;72.65;93659.14;821509;72;26725;-78
2021/05/17 13:48:47;;;;;;;7.00;6.30;;;;;;;18.76;73.18;93658.87;809086;72;26761;-78
2021/05/17 13:49:39;;;;;;;6.90;6.30;;;;;;;18.71;73.11;93649.30;806429;73;27135;-79
2021/05/17 13:50:43;;;;;;;10.82;7.60;;;;;;;18.67;73.31;93660.45;803683;73;26314;-78
2021/05/17 13:51:47;;;;;;;7.67;6.80;;;;;;;18.66;73.88;93652.86;795664;74;26281;-77
2021/05/17 13:52:51;;;;;;;7.12;6.42;;;;;;;18.66;73.90;93651.53;795661;74;26791;-79
2021/05/17 13:53:57;;;;;;;9.05;7.22;;;;;;;18.66;74.22;93656.84;795702;74;26329;-77
2021/05/17 13:55:03;;;;;;;7.42;6.78;;;;;;;18.68;74.69;93661.23;795566;74;26758;-76
2021/05/17 13:56:07;;;;;;;6.90;6.40;;;;;;;18.70;75.22;93663.73;795531;74;26232;-78
2021/05/17 13:57:11;;;;;;;7.33;6.58;;;;;;;18.72;75.79;93665.47;795607;74;26700;-78
2021/05/17 13:58:16;;;;;;;8.45;7.03;;;;;;;18.75;76.03;93663.41;795737;74;26271;-78
2021/05/17 13:59:20;;;;;;;7.00;6.37;;;;;;;18.77;76.12;93664.38;795640;74;26279;-77
2021/05/17 14:00:24;;;;;;;6.60;6.10;;;;;;;18.78;76.29;93661.37;795786;74;26267;-78
2021/05/17 14:01:28;;;;;;;7.42;6.67;;;;;;;18.78;76.33;93660.61;795655;74;26291;-77
2021/05/17 14:02:32;;;;;;;7.17;6.58;;;;;;;18.78;75.24;93672.00;795726;74;26286;-76
2021/05/17 14:03:36;;;;;;;7.87;7.10;;;;;;;18.75;75.07;93670.62;795729;74;26283;-78
2021/05/17 14:04:40;;;;;;;7.42;6.75;;;;;;;18.72;75.10;93665.47;795857;74;26346;-77
2021/05/17 14:05:45;;;;;;;7.95;7.15;;;;;;;18.69;75.16;93663.52;795761;74;26510;-77
2021/05/17 14:06:49;;;;;;;7.30;6.60;;;;;;;18.62;74.98;93660.77;795785;74;26244;-77
2021/05/17 14:07:54;;;;;;;8.83;7.10;;;;;;;18.54;75.03;93653.27;795909;74;26247;-78
2021/05/17 14:08:58;;;;;;;8.13;7.12;;;;;;;18.44;75.50;93654.45;795762;74;26775;-77
2021/05/17 14:10:01;;;;;;;8.00;7.30;;;;;;;18.34;75.87;93652.59;795831;74;26367;-78
2021/05/17 14:11:06;;;;;;;7.30;6.60;;;;;;;18.31;76.20;93657.84;795765;74;26267;-80
2021/05/17 14:12:10;;;;;;;10.15;7.50;;;;;;;18.30;76.44;93657.66;795705;74;27252;-81
2021/05/17 14:13:14;;;;;;;8.25;7.55;;;;;;;18.26;76.62;93661.58;795698;74;26306;-77
2021/05/17 14:14:19;;;;;;;8.50;7.70;;;;;;;18.24;76.74;93653.77;795794;74;26325;-78
2021/05/17 14:15:23;;;;;;;7.67;6.97;;;;;;;18.19;77.07;93646.89;795726;74;26233;-79
2021/05/17 14:16:27;;;;;;;7.42;6.72;;;;;;;18.15;77.17;93650.05;795833;74;26286;-77
2021/05/17 14:17:30;;;;;;;8.65;6.70;;;;;;;18.15;77.31;93646.06;796079;74;26534;-79
2021/05/17 14:18:34;;;;;;;8.78;7.55;;;;;;;18.10;77.30;93642.38;797340;74;26302;-80
2021/05/17 14:19:38;;;;;;;9.73;7.17;;;;;;;18.07;76.85;93649.16;788560;75;26365;-77
2021/05/17 14:20:42;;;;;;;8.18;7.42;;;;;;;18.04;77.30;93646.45;788670;74;26290;-78
2021/05/17 14:21:46;;;;;;;8.08;7.33;;;;;;;18.00;77.55;93643.19;797601;74;26260;-78
2021/05/17 14:22:53;;;;;;;7.83;7.12;;;;;;;17.95;77.37;93641.39;797646;74;26294;-78
2021/05/17 14:23:55;;;;;;;8.13;6.87;;;;;;;17.92;77.33;93640.19;797702;74;26283;-80
2021/05/17 14:24:59;;;;;;;7.37;6.75;;;;;;;17.89;77.38;93641.48;797698;74;26293;-78
2021/05/17 14:26:04;;;;;;;7.50;6.90;;;;;;;17.87;77.62;93644.48;797671;74;26185;-78
2021/05/17 14:27:09;;;;;;;7.30;6.70;;;;;;;17.89;77.91;93646.79;797308;74;26216;-78
2021/05/17 14:28:13;;;;;;;7.80;7.20;;;;;;;17.90;77.79;93651.72;797206;74;26275;-77
2021/05/17 14:29:17;;;;;;;7.62;7.03;;;;;;;17.87;77.46;93651.69;797160;74;26279;-78
2021/05/17 14:30:22;;;;;;;8.73;7.90;;;;;;;17.84;77.14;93654.47;797121;74;26793;-80
2021/05/17 14:31:27;;;;;;;8.63;7.78;;;;;;;17.82;77.33;93658.00;796975;74;26204;-78
2021/05/17 14:32:31;;;;;;;8.55;7.50;;;;;;;17.78;77.63;93653.98;796899;74;26360;-80
2021/05/17 14:33:34;;;;;;;8.08;7.47;;;;;;;17.77;77.65;93659.08;796572;74;26826;-78
2021/05/17 14:34:40;;;;;;;7.60;6.90;;;;;;;17.78;77.87;93654.53;796544;74;26295;-79
2021/05/17 14:35:44;;;;;;;8.03;7.25;;;;;;;17.75;78.04;93650.70;797210;74;26360;-77
2021/05/17 14:36:47;;;;;;;8.70;7.80;;;;;;;17.75;78.34;93652.03;797032;74;26403;-78
2021/05/17 14:37:51;;;;;;;7.78;7.08;;;;;;;17.78;78.48;93647.35;796691;74;26252;-77
2021/05/17 14:38:55;;;;;;;8.53;7.72;;;;;;;17.79;78.59;93646.22;795755;74;26805;-77
2021/05/17 14:39:59;;;;;;;8.00;7.30;;;;;;;17.84;78.82;93644.42;795692;74;26341;-78
2021/05/17 14:41:03;;;;;;;8.98;8.18;;;;;;;17.85;79.13;93648.62;795631;74;26278;-79
2021/05/17 14:42:07;;;;;;;10.15;8.80;;;;;;;17.83;78.83;93647.64;795836;74;26336;-79
2021/05/17 14:43:11;;;;;;;8.85;8.03;;;;;;;17.79;78.88;93647.55;795731;74;26232;-80
2021/05/17 14:44:15;;;;;;;9.80;8.80;;;;;;;17.73;78.73;93652.94;795549;74;26307;-78
2021/05/17 14:45:19;;;;;;;10.18;8.95;;;;;;;17.71;78.71;93652.53;795579;74;26757;-78
2021/05/17 14:46:22;;;;;;;9.48;8.58;;;;;;;17.59;78.83;93649.48;795442;74;26358;-78
2021/05/17 14:47:26;;;;;;;9.13;8.33;;;;;;;17.54;79.20;93653.00;795515;74;26389;-78
2021/05/17 14:48:30;;;;;;;8.40;7.65;;;;;;;17.51;79.47;93652.36;795586;74;26232;-77
2021/05/17 14:49:35;;;;;;;8.40;7.60;;;;;;;17.43;79.19;93652.80;795592;74;26333;-76
2021/05/17 14:50:39;;;;;;;8.35;7.60;;;;;;;17.35;79.16;93653.22;795478;74;26300;-78
2021/05/17 14:51:43;;;;;;;8.48;7.62;;;;;;;17.33;79.30;93650.71;795614;74;26376;-78
2021/05/17 14:52:46;;;;;;;8.10;7.40;;;;;;;17.30;79.40;93655.41;795760;74;26232;-78
2021/05/17 14:53:50;;;;;;;7.90;7.20;;;;;;;17.28;79.29;93653.09;795596;74;26601;-77
2021/05/17 14:54:54;;;;;;;8.25;7.47;;;;;;;17.27;79.47;93650.79;795590;74;26539;-78
2021/05/17 14:55:58;;;;;;;9.83;7.75;;;;;;;17.27;79.95;93650.22;795625;74;26357;-79
2021/05/17 14:57:02;;;;;;;8.20;7.40;;;;;;;17.30;79.99;93642.91;795648;74;26267;-78
2021/05/17 14:58:05;;;;;;;7.47;6.78;;;;;;;17.32;80.03;93643.89;795647;74;26380;-78
2021/05/17 14:59:10;;;;;;;8.65;7.85;;;;;;;17.35;80.25;93641.84;795632;74;26240;-76
2021/05/17 15:00:16;;;;;;;8.43;7.70;;;;;;;17.35;80.13;93640.52;795695;74;26282;-78
2021/05/17 15:16:16;;;;;;;8.73;7.83;;;;;;;16.35;83.53;93652.50;833875;71;32643;-77
2021/05/17 15:31:08;;;;;;;10.35;7.85;;;;;;;16.02;85.08;93659.70;827900;71;29660;-75
2021/05/17 15:46:08;;;;;;;9.05;8.25;;;;;;;15.91;87.18;93665.84;829393;71;29785;-78
2021/05/17 16:01:14;;;;;;;10.43;8.10;;;;;;;15.67;87.59;93648.98;833856;71;29800;-78
2021/05/17 16:31:09;;;;;;;10.15;8.75;;;;;;;15.35;88.04;93627.81;828609;71;29370;-78
2021/05/17 16:46:20;;;;;;;10.85;9.75;;;;;;;15.16;89.51;93619.19;833440;71;32769;-77
2021/05/17 17:01:15;;;;;;;11.33;10.20;;;;;;;15.91;88.42;93594.41;833551;71;32703;-77
2021/05/17 17:16:14;;;;;;;11.65;9.98;;;;;;;15.37;88.92;93588.59;827312;71;32845;-77
2021/05/17 17:31:13;;;;;;;10.75;9.73;;;;;;;15.11;90.91;93584.34;828759;71;32434;-79
2021/05/17 17:46:08;;;;;;;11.70;10.50;;;;;;;14.79;91.63;93563.89;833977;71;30243;-77
2021/05/17 18:01:14;;;;;;;12.90;10.88;;;;;;;14.45;94.45;93568.39;827436;71;34243;-79
2021/05/17 18:16:18;;;;;;;13.58;12.18;;;;;;;14.46;95.13;93577.30;833758;71;32832;-75
2021/05/17 18:31:13;;;;;;;11.90;10.70;;;;;;;14.53;93.63;93603.88;828093;71;29783;-76
2021/05/17 18:46:28;;;;;;;12.03;10.82;;;;;;;14.68;94.01;93622.26;833483;71;32899;-78
2021/05/17 19:01:15;;;;;;;14.53;11.80;;;;;;;14.91;94.21;93636.27;833848;71;33273;-75
2021/05/17 19:16:14;;;;;;;14.83;13.32;;;;;;;15.11;93.78;93648.52;827290;71;32717;-79
2021/05/17 19:31:08;;;;;;;17.75;14.40;;;;;;;15.26;93.39;93656.83;828204;71;29639;-77
2021/05/17 19:46:08;;;;;;;17.05;14.40;;;;;;;14.98;92.53;93656.26;828664;71;29457;-77
2021/05/17 20:01:16;;;;;;;20.00;17.23;;;;;;;15.11;92.79;93664.94;827555;71;33150;-76
2021/05/17 20:16:09;;;;;;;22.98;17.87;;;;;;;15.06;91.20;93685.73;834163;71;30146;-75
2021/05/17 20:31:17;;;;;;;23.47;18.55;;;;;;;15.11;91.42;93692.12;828837;71;32145;-77
2021/05/17 20:46:11;;;;;;;31.07;21.60;;;;;;;15.12;91.21;93660.61;819024;71;30205;-79
2021/05/17 21:01:45;;;;;;;31.40;25.32;;;;;;;14.99;90.99;93666.50;820075;71;30195;-77
2021/05/17 21:16:09;;;;;;;25.82;21.23;;;;;;;14.76;90.93;93662.28;828248;71;29807;-77
2021/05/17 21:31:29;;;;;;;26.97;21.65;;;;;;;14.71;91.28;93665.70;833847;71;32860;-77
2021/05/17 21:46:14;;;;;;;26.42;21.52;;;;;;;14.47;91.78;93653.28;827589;71;33198;-79
2021/05/17 22:01:09;;;;;;;27.40;20.90;;;;;;;14.46;91.86;93663.64;828113;71;30405;-75
2021/05/17 22:16:16;;;;;;;27.30;20.48;;;;;;;14.47;92.02;93690.23;827610;71;32842;-78